sensor_id;sensor_type;location;lat;lon;timestamp;temperature;humidity
39847;DHT22;25517;52.422;10.782;2024-03-08T00:02:00;2.00;99.90
39847;DHT22;25517;52.422;10.782;2024-03-08T00:04:25;1.90;99.90
39847;DHT22;25517;52.422;10.782;2024-03-08T00:06:51;1.90;99.90
39847;DHT22;25517;52.422;10.782;2024-03-08T00:09:16;1.90;99.90
39847;DHT22;25517;52.422;10.782;2024-03-08T00:11:42;1.80;99.90
39847;DHT22;25517;52.422;10.782;2024-03-08T00:14:07;1.80;99.90
39847;DHT22;25517;52.422;10.782;2024-03-08T00:16:33;1.70;99.90
39847;DHT22;25517;52.422;10.782;2024-03-08T00:19:00;1.70;99.90
39847;DHT22;25517;52.422;10.782;2024-03-08T00:21:26;1.70;99.90
39847;DHT22;25517;52.422;10.782;2024-03-08T00:23:52;1.60;99.90
39847;DHT22;25517;52.422;10.782;2024-03-08T00:26:20;1.60;99.90
39847;DHT22;25517;52.422;10.782;2024-03-08T00:28:47;1.60;99.90
39847;DHT22;25517;52.422;10.782;2024-03-08T00:31:14;1.60;99.90
39847;DHT22;25517;52.422;10.782;2024-03-08T00:33:41;1.60;99.90
39847;DHT22;25517;52.422;10.782;2024-03-08T00:36:06;1.50;99.90
39847;DHT22;25517;52.422;10.782;2024-03-08T00:38:32;1.50;99.90
39847;DHT22;25517;52.422;10.782;2024-03-08T00:40:59;1.50;99.90
39847;DHT22;25517;52.422;10.782;2024-03-08T00:43:25;1.50;99.90
39847;DHT22;25517;52.422;10.782;2024-03-08T00:45:51;1.50;99.90
39847;DHT22;25517;52.422;10.782;2024-03-08T00:48:16;1.50;99.90
39847;DHT22;25517;52.422;10.782;2024-03-08T00:50:42;1.50;99.90
39847;DHT22;25517;52.422;10.782;2024-03-08T00:53:11;1.40;99.90
39847;DHT22;25517;52.422;10.782;2024-03-08T00:55:37;1.50;99.90
39847;DHT22;25517;52.422;10.782;2024-03-08T00:58:03;1.50;99.90
39847;DHT22;25517;52.422;10.782;2024-03-08T01:00:29;1.40;99.90
39847;DHT22;25517;52.422;10.782;2024-03-08T01:02:54;1.50;99.90
39847;DHT22;25517;52.422;10.782;2024-03-08T01:05:21;1.40;99.90
39847;DHT22;25517;52.422;10.782;2024-03-08T01:07:46;1.40;99.90
39847;DHT22;25517;52.422;10.782;2024-03-08T01:10:12;1.30;99.90
39847;DHT22;25517;52.422;10.782;2024-03-08T01:12:38;1.30;99.90
39847;DHT22;25517;52.422;10.782;2024-03-08T01:15:04;1.30;99.90
39847;DHT22;25517;52.422;10.782;2024-03-08T01:17:30;1.30;99.90
39847;DHT22;25517;52.422;10.782;2024-03-08T01:19:56;1.40;99.90
39847;DHT22;25517;52.422;10.782;2024-03-08T01:22:22;1.30;99.90
39847;DHT22;25517;52.422;10.782;2024-03-08T01:24:48;1.30;99.90
39847;DHT22;25517;52.422;10.782;2024-03-08T01:27:14;1.30;99.90
39847;DHT22;25517;52.422;10.782;2024-03-08T01:29:40;1.30;99.90
39847;DHT22;25517;52.422;10.782;2024-03-08T01:32:05;1.20;99.90
39847;DHT22;25517;52.422;10.782;2024-03-08T01:34:31;1.20;99.90
39847;DHT22;25517;52.422;10.782;2024-03-08T01:36:58;1.20;99.90
39847;DHT22;25517;52.422;10.782;2024-03-08T01:39:24;1.20;99.90
39847;DHT22;25517;52.422;10.782;2024-03-08T01:41:50;1.20;99.90
39847;DHT22;25517;52.422;10.782;2024-03-08T01:44:16;1.20;99.90
39847;DHT22;25517;52.422;10.782;2024-03-08T01:46:46;1.20;99.90
39847;DHT22;25517;52.422;10.782;2024-03-08T01:49:13;1.20;99.90
39847;DHT22;25517;52.422;10.782;2024-03-08T01:51:40;1.10;99.90
39847;DHT22;25517;52.422;10.782;2024-03-08T01:54:07;1.10;99.90
39847;DHT22;25517;52.422;10.782;2024-03-08T01:56:35;1.00;99.90
39847;DHT22;25517;52.422;10.782;2024-03-08T01:59:03;1.00;99.90
39847;DHT22;25517;52.422;10.782;2024-03-08T02:01:29;0.90;99.90
39847;DHT22;25517;52.422;10.782;2024-03-08T02:03:54;0.90;99.90
39847;DHT22;25517;52.422;10.782;2024-03-08T02:06:20;0.90;99.90
39847;DHT22;25517;52.422;10.782;2024-03-08T02:08:46;0.90;99.90
39847;DHT22;25517;52.422;10.782;2024-03-08T02:11:12;0.90;99.90
39847;DHT22;25517;52.422;10.782;2024-03-08T02:13:38;0.90;99.90
39847;DHT22;25517;52.422;10.782;2024-03-08T02:16:04;0.90;99.90
39847;DHT22;25517;52.422;10.782;2024-03-08T02:18:30;0.90;99.90
39847;DHT22;25517;52.422;10.782;2024-03-08T02:20:57;0.80;99.90
39847;DHT22;25517;52.422;10.782;2024-03-08T02:23:23;0.70;99.90
39847;DHT22;25517;52.422;10.782;2024-03-08T02:25:50;0.70;99.90
39847;DHT22;25517;52.422;10.782;2024-03-08T02:28:16;0.80;99.90
39847;DHT22;25517;52.422;10.782;2024-03-08T02:30:44;0.70;99.90
39847;DHT22;25517;52.422;10.782;2024-03-08T02:33:14;0.80;99.90
39847;DHT22;25517;52.422;10.782;2024-03-08T02:35:45;0.80;99.90
39847;DHT22;25517;52.422;10.782;2024-03-08T02:38:12;0.80;99.90
39847;DHT22;25517;52.422;10.782;2024-03-08T02:40:38;0.80;99.90
39847;DHT22;25517;52.422;10.782;2024-03-08T02:43:04;0.80;99.90
39847;DHT22;25517;52.422;10.782;2024-03-08T02:45:30;0.70;99.90
39847;DHT22;25517;52.422;10.782;2024-03-08T02:47:56;0.70;99.90
39847;DHT22;25517;52.422;10.782;2024-03-08T02:50:21;0.70;99.90
39847;DHT22;25517;52.422;10.782;2024-03-08T02:52:48;0.70;99.90
39847;DHT22;25517;52.422;10.782;2024-03-08T02:55:13;0.70;99.90
39847;DHT22;25517;52.422;10.782;2024-03-08T02:57:41;0.70;99.90
39847;DHT22;25517;52.422;10.782;2024-03-08T03:00:08;0.70;99.90
39847;DHT22;25517;52.422;10.782;2024-03-08T03:02:34;0.60;99.90
39847;DHT22;25517;52.422;10.782;2024-03-08T03:05:00;0.60;99.90
39847;DHT22;25517;52.422;10.782;2024-03-08T03:07:30;0.60;99.90
39847;DHT22;25517;52.422;10.782;2024-03-08T03:09:56;0.60;99.90
39847;DHT22;25517;52.422;10.782;2024-03-08T03:12:21;0.60;99.90
39847;DHT22;25517;52.422;10.782;2024-03-08T03:14:48;0.60;99.90
39847;DHT22;25517;52.422;10.782;2024-03-08T03:17:13;0.60;99.90
39847;DHT22;25517;52.422;10.782;2024-03-08T03:19:41;0.50;99.90
39847;DHT22;25517;52.422;10.782;2024-03-08T03:22:07;0.50;99.90
39847;DHT22;25517;52.422;10.782;2024-03-08T03:24:35;0.50;99.90
39847;DHT22;25517;52.422;10.782;2024-03-08T03:27:03;0.40;99.90
39847;DHT22;25517;52.422;10.782;2024-03-08T03:29:36;0.40;99.90
39847;DHT22;25517;52.422;10.782;2024-03-08T03:32:01;0.50;99.90
39847;DHT22;25517;52.422;10.782;2024-03-08T03:34:29;0.40;99.90
39847;DHT22;25517;52.422;10.782;2024-03-08T03:36:54;0.50;99.90
39847;DHT22;25517;52.422;10.782;2024-03-08T03:39:21;0.50;99.90
39847;DHT22;25517;52.422;10.782;2024-03-08T03:41:48;0.40;99.90
39847;DHT22;25517;52.422;10.782;2024-03-08T03:44:17;0.40;99.90
39847;DHT22;25517;52.422;10.782;2024-03-08T03:46:42;0.40;99.90
39847;DHT22;25517;52.422;10.782;2024-03-08T03:49:09;0.40;99.90
39847;DHT22;25517;52.422;10.782;2024-03-08T03:51:35;0.40;99.90
39847;DHT22;25517;52.422;10.782;2024-03-08T03:54:00;0.40;99.90
39847;DHT22;25517;52.422;10.782;2024-03-08T03:56:26;0.30;99.90
39847;DHT22;25517;52.422;10.782;2024-03-08T03:58:52;0.30;99.90
39847;DHT22;25517;52.422;10.782;2024-03-08T04:01:17;0.30;99.90
39847;DHT22;25517;52.422;10.782;2024-03-08T04:03:43;0.40;99.90
39847;DHT22;25517;52.422;10.782;2024-03-08T04:06:08;0.30;99.90
39847;DHT22;25517;52.422;10.782;2024-03-08T04:08:34;0.30;99.90
39847;DHT22;25517;52.422;10.782;2024-03-08T04:11:00;0.30;99.90
39847;DHT22;25517;52.422;10.782;2024-03-08T04:13:26;0.20;99.90
39847;DHT22;25517;52.422;10.782;2024-03-08T04:15:51;0.20;99.90
39847;DHT22;25517;52.422;10.782;2024-03-08T04:18:17;0.20;99.90
39847;DHT22;25517;52.422;10.782;2024-03-08T04:20:43;0.20;99.90
39847;DHT22;25517;52.422;10.782;2024-03-08T04:23:09;0.20;99.90
39847;DHT22;25517;52.422;10.782;2024-03-08T04:25:34;0.20;99.90
39847;DHT22;25517;52.422;10.782;2024-03-08T04:28:00;0.20;99.90
39847;DHT22;25517;52.422;10.782;2024-03-08T04:30:25;0.20;99.90
39847;DHT22;25517;52.422;10.782;2024-03-08T04:32:53;0.20;99.90
39847;DHT22;25517;52.422;10.782;2024-03-08T04:35:19;0.20;99.90
39847;DHT22;25517;52.422;10.782;2024-03-08T04:37:45;0.20;99.90
39847;DHT22;25517;52.422;10.782;2024-03-08T04:40:11;0.10;99.90
39847;DHT22;25517;52.422;10.782;2024-03-08T04:42:37;0.10;99.90
39847;DHT22;25517;52.422;10.782;2024-03-08T04:45:05;0.10;99.90
39847;DHT22;25517;52.422;10.782;2024-03-08T04:47:30;0.10;99.90
39847;DHT22;25517;52.422;10.782;2024-03-08T04:49:56;0.10;99.90
39847;DHT22;25517;52.422;10.782;2024-03-08T04:52:22;0.10;99.90
39847;DHT22;25517;52.422;10.782;2024-03-08T04:54:48;0.10;99.90
39847;DHT22;25517;52.422;10.782;2024-03-08T04:57:13;0.10;99.90
39847;DHT22;25517;52.422;10.782;2024-03-08T04:59:39;0.10;99.90
39847;DHT22;25517;52.422;10.782;2024-03-08T05:02:05;0.00;99.90
39847;DHT22;25517;52.422;10.782;2024-03-08T05:04:32;0.10;99.90
39847;DHT22;25517;52.422;10.782;2024-03-08T05:06:58;0.10;99.90
39847;DHT22;25517;52.422;10.782;2024-03-08T05:09:26;0.00;99.90
39847;DHT22;25517;52.422;10.782;2024-03-08T05:11:54;0.00;99.90
39847;DHT22;25517;52.422;10.782;2024-03-08T05:14:19;0.00;99.90
39847;DHT22;25517;52.422;10.782;2024-03-08T05:16:46;0.00;99.90
39847;DHT22;25517;52.422;10.782;2024-03-08T05:19:15;0.00;99.90
39847;DHT22;25517;52.422;10.782;2024-03-08T05:21:46;0.00;99.90
39847;DHT22;25517;52.422;10.782;2024-03-08T05:24:11;0.00;99.90
39847;DHT22;25517;52.422;10.782;2024-03-08T05:26:38;0.00;99.90
39847;DHT22;25517;52.422;10.782;2024-03-08T05:29:04;-0.10;99.90
39847;DHT22;25517;52.422;10.782;2024-03-08T05:31:34;-0.10;99.90
39847;DHT22;25517;52.422;10.782;2024-03-08T05:34:01;-0.10;99.90
39847;DHT22;25517;52.422;10.782;2024-03-08T05:36:27;-0.10;99.90
39847;DHT22;25517;52.422;10.782;2024-03-08T05:38:52;-0.10;99.90
39847;DHT22;25517;52.422;10.782;2024-03-08T05:41:18;-0.10;99.90
39847;DHT22;25517;52.422;10.782;2024-03-08T05:43:45;-0.10;99.90
39847;DHT22;25517;52.422;10.782;2024-03-08T05:46:10;-0.10;99.90
39847;DHT22;25517;52.422;10.782;2024-03-08T05:48:37;-0.10;99.90
39847;DHT22;25517;52.422;10.782;2024-03-08T05:51:03;-0.10;99.90
39847;DHT22;25517;52.422;10.782;2024-03-08T05:53:29;-0.10;99.90
39847;DHT22;25517;52.422;10.782;2024-03-08T05:55:58;-0.10;99.90
39847;DHT22;25517;52.422;10.782;2024-03-08T05:58:24;-0.20;99.90
39847;DHT22;25517;52.422;10.782;2024-03-08T06:00:49;-0.20;99.90
39847;DHT22;25517;52.422;10.782;2024-03-08T06:03:15;-0.10;99.90
39847;DHT22;25517;52.422;10.782;2024-03-08T06:05:41;-0.10;99.90
39847;DHT22;25517;52.422;10.782;2024-03-08T06:08:07;-0.20;99.90
39847;DHT22;25517;52.422;10.782;2024-03-08T06:10:33;-0.20;99.90
39847;DHT22;25517;52.422;10.782;2024-03-08T06:12:59;-0.20;99.90
39847;DHT22;25517;52.422;10.782;2024-03-08T06:15:25;-0.10;99.90
39847;DHT22;25517;52.422;10.782;2024-03-08T06:17:51;-0.10;99.90
39847;DHT22;25517;52.422;10.782;2024-03-08T06:20:18;-0.10;99.90
39847;DHT22;25517;52.422;10.782;2024-03-08T06:22:43;-0.10;99.90
39847;DHT22;25517;52.422;10.782;2024-03-08T06:25:10;0.00;99.90
39847;DHT22;25517;52.422;10.782;2024-03-08T06:27:42;0.00;99.90
39847;DHT22;25517;52.422;10.782;2024-03-08T06:30:08;0.00;99.90
39847;DHT22;25517;52.422;10.782;2024-03-08T06:32:35;0.00;99.90
39847;DHT22;25517;52.422;10.782;2024-03-08T06:35:04;0.00;99.90
39847;DHT22;25517;52.422;10.782;2024-03-08T06:37:32;0.00;99.90
39847;DHT22;25517;52.422;10.782;2024-03-08T06:39:58;0.10;99.90
39847;DHT22;25517;52.422;10.782;2024-03-08T06:42:23;0.10;99.90
39847;DHT22;25517;52.422;10.782;2024-03-08T06:44:49;0.10;99.90
39847;DHT22;25517;52.422;10.782;2024-03-08T06:47:17;0.10;99.90
39847;DHT22;25517;52.422;10.782;2024-03-08T06:49:43;0.10;99.90
39847;DHT22;25517;52.422;10.782;2024-03-08T06:52:09;0.20;99.90
39847;DHT22;25517;52.422;10.782;2024-03-08T06:54:35;0.20;99.90
39847;DHT22;25517;52.422;10.782;2024-03-08T06:57:05;0.20;99.90
39847;DHT22;25517;52.422;10.782;2024-03-08T06:59:31;0.30;99.90
39847;DHT22;25517;52.422;10.782;2024-03-08T07:01:56;0.30;99.90
39847;DHT22;25517;52.422;10.782;2024-03-08T07:04:22;0.40;99.90
39847;DHT22;25517;52.422;10.782;2024-03-08T07:06:51;0.40;99.90
39847;DHT22;25517;52.422;10.782;2024-03-08T07:09:17;0.50;99.90
39847;DHT22;25517;52.422;10.782;2024-03-08T07:11:43;0.50;99.90
39847;DHT22;25517;52.422;10.782;2024-03-08T07:14:08;0.50;99.90
39847;DHT22;25517;52.422;10.782;2024-03-08T07:16:34;0.60;99.90
39847;DHT22;25517;52.422;10.782;2024-03-08T07:19:01;0.60;99.90
39847;DHT22;25517;52.422;10.782;2024-03-08T07:21:26;0.70;99.90
39847;DHT22;25517;52.422;10.782;2024-03-08T07:23:52;0.70;99.90
39847;DHT22;25517;52.422;10.782;2024-03-08T07:26:27;0.80;99.90
39847;DHT22;25517;52.422;10.782;2024-03-08T07:28:53;0.90;99.90
39847;DHT22;25517;52.422;10.782;2024-03-08T07:31:22;0.90;99.90
39847;DHT22;25517;52.422;10.782;2024-03-08T07:33:50;1.00;99.90
39847;DHT22;25517;52.422;10.782;2024-03-08T07:36:16;1.10;99.90
39847;DHT22;25517;52.422;10.782;2024-03-08T07:38:42;1.10;99.90
39847;DHT22;25517;52.422;10.782;2024-03-08T07:41:07;1.20;99.90
39847;DHT22;25517;52.422;10.782;2024-03-08T07:43:33;1.30;99.90
39847;DHT22;25517;52.422;10.782;2024-03-08T07:45:58;1.40;99.90
39847;DHT22;25517;52.422;10.782;2024-03-08T07:48:24;1.50;99.90
39847;DHT22;25517;52.422;10.782;2024-03-08T07:50:49;1.60;99.90
39847;DHT22;25517;52.422;10.782;2024-03-08T07:53:15;1.60;99.90
39847;DHT22;25517;52.422;10.782;2024-03-08T07:55:41;1.70;99.90
39847;DHT22;25517;52.422;10.782;2024-03-08T07:58:07;1.80;99.90
39847;DHT22;25517;52.422;10.782;2024-03-08T08:00:36;1.90;99.90
39847;DHT22;25517;52.422;10.782;2024-03-08T08:03:02;2.00;99.90
39847;DHT22;25517;52.422;10.782;2024-03-08T08:05:28;2.00;99.90
39847;DHT22;25517;52.422;10.782;2024-03-08T08:07:53;2.10;99.90
39847;DHT22;25517;52.422;10.782;2024-03-08T08:10:21;2.20;99.90
39847;DHT22;25517;52.422;10.782;2024-03-08T08:12:48;2.40;99.90
39847;DHT22;25517;52.422;10.782;2024-03-08T08:15:14;2.40;99.90
39847;DHT22;25517;52.422;10.782;2024-03-08T08:17:43;2.50;99.90
39847;DHT22;25517;52.422;10.782;2024-03-08T08:20:10;2.60;99.90
39847;DHT22;25517;52.422;10.782;2024-03-08T08:22:39;2.70;99.90
39847;DHT22;25517;52.422;10.782;2024-03-08T08:25:06;2.80;99.90
39847;DHT22;25517;52.422;10.782;2024-03-08T08:27:32;2.90;99.90
39847;DHT22;25517;52.422;10.782;2024-03-08T08:29:58;2.90;99.90
39847;DHT22;25517;52.422;10.782;2024-03-08T08:32:24;3.00;99.90
39847;DHT22;25517;52.422;10.782;2024-03-08T08:34:49;3.20;99.90
39847;DHT22;25517;52.422;10.782;2024-03-08T08:37:15;3.30;99.90
39847;DHT22;25517;52.422;10.782;2024-03-08T08:39:42;3.50;99.90
39847;DHT22;25517;52.422;10.782;2024-03-08T08:42:07;3.60;99.90
39847;DHT22;25517;52.422;10.782;2024-03-08T08:44:35;3.70;99.90
39847;DHT22;25517;52.422;10.782;2024-03-08T08:47:03;3.80;99.90
39847;DHT22;25517;52.422;10.782;2024-03-08T08:49:29;4.00;99.90
39847;DHT22;25517;52.422;10.782;2024-03-08T08:51:56;4.20;99.90
39847;DHT22;25517;52.422;10.782;2024-03-08T08:54:24;4.40;99.90
39847;DHT22;25517;52.422;10.782;2024-03-08T08:56:50;4.60;99.90
39847;DHT22;25517;52.422;10.782;2024-03-08T08:59:16;5.30;99.90
39847;DHT22;25517;52.422;10.782;2024-03-08T09:01:45;6.50;99.90
39847;DHT22;25517;52.422;10.782;2024-03-08T09:04:12;8.30;99.90
39847;DHT22;25517;52.422;10.782;2024-03-08T09:06:38;9.70;97.00
39847;DHT22;25517;52.422;10.782;2024-03-08T09:09:06;11.30;94.00
39847;DHT22;25517;52.422;10.782;2024-03-08T09:11:34;12.20;89.80
39847;DHT22;25517;52.422;10.782;2024-03-08T09:14:00;12.90;87.80
39847;DHT22;25517;52.422;10.782;2024-03-08T09:16:27;13.80;82.30
39847;DHT22;25517;52.422;10.782;2024-03-08T09:18:52;14.50;80.40
39847;DHT22;25517;52.422;10.782;2024-03-08T09:21:18;14.90;76.50
39847;DHT22;25517;52.422;10.782;2024-03-08T09:23:43;15.30;73.50
39847;DHT22;25517;52.422;10.782;2024-03-08T09:26:10;15.70;73.20
39847;DHT22;25517;52.422;10.782;2024-03-08T09:28:38;16.40;72.40
39847;DHT22;25517;52.422;10.782;2024-03-08T09:31:04;16.60;69.70
39847;DHT22;25517;52.422;10.782;2024-03-08T09:33:30;16.90;70.00
39847;DHT22;25517;52.422;10.782;2024-03-08T09:35:56;17.50;69.20
39847;DHT22;25517;52.422;10.782;2024-03-08T09:38:47;17.40;66.70
39847;DHT22;25517;52.422;10.782;2024-03-08T09:41:14;17.50;66.70
39847;DHT22;25517;52.422;10.782;2024-03-08T09:43:39;18.30;64.40
39847;DHT22;25517;52.422;10.782;2024-03-08T09:46:06;18.30;64.60
39847;DHT22;25517;52.422;10.782;2024-03-08T09:48:32;18.20;64.10
39847;DHT22;25517;52.422;10.782;2024-03-08T09:51:00;18.90;64.30
39847;DHT22;25517;52.422;10.782;2024-03-08T09:53:28;19.30;63.90
39847;DHT22;25517;52.422;10.782;2024-03-08T09:55:54;19.40;62.30
39847;DHT22;25517;52.422;10.782;2024-03-08T09:58:20;19.60;62.00
39847;DHT22;25517;52.422;10.782;2024-03-08T10:00:58;19.30;61.10
39847;DHT22;25517;52.422;10.782;2024-03-08T10:03:24;19.70;60.60
39847;DHT22;25517;52.422;10.782;2024-03-08T10:05:52;19.40;59.70
39847;DHT22;25517;52.422;10.782;2024-03-08T10:08:19;19.60;59.30
39847;DHT22;25517;52.422;10.782;2024-03-08T10:10:45;20.20;58.20
39847;DHT22;25517;52.422;10.782;2024-03-08T10:13:11;20.40;60.70
39847;DHT22;25517;52.422;10.782;2024-03-08T10:15:39;20.20;58.60
39847;DHT22;25517;52.422;10.782;2024-03-08T10:18:06;19.90;59.50
39847;DHT22;25517;52.422;10.782;2024-03-08T10:20:32;20.20;58.50
39847;DHT22;25517;52.422;10.782;2024-03-08T10:23:02;20.50;58.70
39847;DHT22;25517;52.422;10.782;2024-03-08T10:25:30;20.90;57.20
39847;DHT22;25517;52.422;10.782;2024-03-08T10:28:02;20.90;55.70
39847;DHT22;25517;52.422;10.782;2024-03-08T10:30:30;21.00;56.80
39847;DHT22;25517;52.422;10.782;2024-03-08T10:33:00;21.20;56.30
39847;DHT22;25517;52.422;10.782;2024-03-08T10:35:34;21.40;56.40
39847;DHT22;25517;52.422;10.782;2024-03-08T10:38:01;21.00;55.50
39847;DHT22;25517;52.422;10.782;2024-03-08T10:40:32;20.70;56.80
39847;DHT22;25517;52.422;10.782;2024-03-08T10:42:59;20.30;55.90
39847;DHT22;25517;52.422;10.782;2024-03-08T10:45:31;20.10;57.40
39847;DHT22;25517;52.422;10.782;2024-03-08T10:50:46;20.60;56.10
39847;DHT22;25517;52.422;10.782;2024-03-08T10:53:13;20.20;54.50
39847;DHT22;25517;52.422;10.782;2024-03-08T10:55:45;20.50;56.60
39847;DHT22;25517;52.422;10.782;2024-03-08T10:58:11;21.40;55.30
39847;DHT22;25517;52.422;10.782;2024-03-08T11:00:37;21.80;54.40
39847;DHT22;25517;52.422;10.782;2024-03-08T11:03:03;20.80;52.90
39847;DHT22;25517;52.422;10.782;2024-03-08T11:05:40;20.70;54.00
39847;DHT22;25517;52.422;10.782;2024-03-08T11:08:17;20.90;55.10
39847;DHT22;25517;52.422;10.782;2024-03-08T11:10:53;21.20;53.70
39847;DHT22;25517;52.422;10.782;2024-03-08T11:13:36;20.70;55.30
39847;DHT22;25517;52.422;10.782;2024-03-08T11:16:07;20.20;54.70
39847;DHT22;25517;52.422;10.782;2024-03-08T11:18:33;20.60;53.40
39847;DHT22;25517;52.422;10.782;2024-03-08T11:21:02;20.60;54.60
39847;DHT22;25517;52.422;10.782;2024-03-08T11:23:31;21.20;55.40
39847;DHT22;25517;52.422;10.782;2024-03-08T11:25:56;20.40;54.50
39847;DHT22;25517;52.422;10.782;2024-03-08T11:28:25;20.50;55.50
39847;DHT22;25517;52.422;10.782;2024-03-08T11:31:30;20.40;55.80
39847;DHT22;25517;52.422;10.782;2024-03-08T11:34:00;20.80;54.00
39847;DHT22;25517;52.422;10.782;2024-03-08T11:36:26;20.90;55.30
39847;DHT22;25517;52.422;10.782;2024-03-08T11:38:52;21.10;56.40
39847;DHT22;25517;52.422;10.782;2024-03-08T11:41:21;21.60;54.10
39847;DHT22;25517;52.422;10.782;2024-03-08T11:43:47;22.30;53.20
39847;DHT22;25517;52.422;10.782;2024-03-08T11:46:15;21.80;54.00
39847;DHT22;25517;52.422;10.782;2024-03-08T11:48:41;22.20;54.80
39847;DHT22;25517;52.422;10.782;2024-03-08T11:51:11;21.90;53.50
39847;DHT22;25517;52.422;10.782;2024-03-08T11:53:37;21.50;51.20
39847;DHT22;25517;52.422;10.782;2024-03-08T11:56:13;21.30;52.20
39847;DHT22;25517;52.422;10.782;2024-03-08T11:58:40;21.10;51.00
39847;DHT22;25517;52.422;10.782;2024-03-08T12:01:07;21.30;51.50
39847;DHT22;25517;52.422;10.782;2024-03-08T12:03:45;22.20;52.80
39847;DHT22;25517;52.422;10.782;2024-03-08T12:06:20;22.10;50.40
39847;DHT22;25517;52.422;10.782;2024-03-08T12:08:48;21.10;52.50
39847;DHT22;25517;52.422;10.782;2024-03-08T12:11:14;21.30;51.90
39847;DHT22;25517;52.422;10.782;2024-03-08T12:13:41;21.40;52.10
39847;DHT22;25517;52.422;10.782;2024-03-08T12:16:07;21.50;51.30
39847;DHT22;25517;52.422;10.782;2024-03-08T12:18:37;21.30;51.60
39847;DHT22;25517;52.422;10.782;2024-03-08T12:21:07;21.40;53.30
39847;DHT22;25517;52.422;10.782;2024-03-08T12:23:33;21.30;53.60
39847;DHT22;25517;52.422;10.782;2024-03-08T12:26:24;20.40;51.50
39847;DHT22;25517;52.422;10.782;2024-03-08T12:28:52;19.30;55.20
39847;DHT22;25517;52.422;10.782;2024-03-08T12:31:18;18.90;55.50
39847;DHT22;25517;52.422;10.782;2024-03-08T12:33:49;19.20;56.00
39847;DHT22;25517;52.422;10.782;2024-03-08T12:36:16;19.20;55.80
39847;DHT22;25517;52.422;10.782;2024-03-08T12:38:45;18.70;57.10
39847;DHT22;25517;52.422;10.782;2024-03-08T12:41:13;18.50;58.10
39847;DHT22;25517;52.422;10.782;2024-03-08T12:43:39;18.60;56.20
39847;DHT22;25517;52.422;10.782;2024-03-08T12:46:05;18.30;58.10
39847;DHT22;25517;52.422;10.782;2024-03-08T12:48:34;17.50;59.10
39847;DHT22;25517;52.422;10.782;2024-03-08T12:51:01;17.30;59.20
39847;DHT22;25517;52.422;10.782;2024-03-08T12:53:26;17.40;60.00
39847;DHT22;25517;52.422;10.782;2024-03-08T12:55:54;17.40;61.30
39847;DHT22;25517;52.422;10.782;2024-03-08T12:58:22;17.30;59.20
39847;DHT22;25517;52.422;10.782;2024-03-08T13:00:47;17.00;60.60
39847;DHT22;25517;52.422;10.782;2024-03-08T13:03:14;16.90;60.70
39847;DHT22;25517;52.422;10.782;2024-03-08T13:05:40;16.90;60.50
39847;DHT22;25517;52.422;10.782;2024-03-08T13:08:08;16.70;61.90
39847;DHT22;25517;52.422;10.782;2024-03-08T13:10:39;17.00;61.40
39847;DHT22;25517;52.422;10.782;2024-03-08T13:13:05;16.80;62.20
39847;DHT22;25517;52.422;10.782;2024-03-08T13:15:30;16.80;61.60
39847;DHT22;25517;52.422;10.782;2024-03-08T13:17:56;16.30;61.10
39847;DHT22;25517;52.422;10.782;2024-03-08T13:20:25;16.10;61.70
39847;DHT22;25517;52.422;10.782;2024-03-08T13:22:54;16.10;62.40
39847;DHT22;25517;52.422;10.782;2024-03-08T13:25:22;15.80;64.40
39847;DHT22;25517;52.422;10.782;2024-03-08T13:28:12;15.80;64.10
39847;DHT22;25517;52.422;10.782;2024-03-08T13:31:20;15.80;63.30
39847;DHT22;25517;52.422;10.782;2024-03-08T13:34:47;15.80;63.00
39847;DHT22;25517;52.422;10.782;2024-03-08T13:38:00;15.70;62.90
39847;DHT22;25517;52.422;10.782;2024-03-08T13:40:47;15.70;61.40
39847;DHT22;25517;52.422;10.782;2024-03-08T13:43:17;15.70;62.60
39847;DHT22;25517;52.422;10.782;2024-03-08T13:45:56;15.60;62.00
39847;DHT22;25517;52.422;10.782;2024-03-08T13:48:22;15.20;63.40
39847;DHT22;25517;52.422;10.782;2024-03-08T13:50:48;15.20;64.20
39847;DHT22;25517;52.422;10.782;2024-03-08T13:53:15;15.00;62.10
39847;DHT22;25517;52.422;10.782;2024-03-08T13:55:41;14.80;65.40
39847;DHT22;25517;52.422;10.782;2024-03-08T13:58:06;14.90;65.30
39847;DHT22;25517;52.422;10.782;2024-03-08T14:00:35;14.80;63.20
39847;DHT22;25517;52.422;10.782;2024-03-08T14:03:01;14.90;65.50
39847;DHT22;25517;52.422;10.782;2024-03-08T14:05:31;14.80;64.00
39847;DHT22;25517;52.422;10.782;2024-03-08T14:08:00;14.70;64.20
39847;DHT22;25517;52.422;10.782;2024-03-08T14:10:29;14.70;62.90
39847;DHT22;25517;52.422;10.782;2024-03-08T14:12:57;14.50;64.50
39847;DHT22;25517;52.422;10.782;2024-03-08T14:15:22;14.50;64.10
39847;DHT22;25517;52.422;10.782;2024-03-08T14:17:55;14.40;64.30
39847;DHT22;25517;52.422;10.782;2024-03-08T14:20:21;14.30;63.30
39847;DHT22;25517;52.422;10.782;2024-03-08T14:22:54;14.20;64.50
39847;DHT22;25517;52.422;10.782;2024-03-08T14:25:24;14.30;63.20
39847;DHT22;25517;52.422;10.782;2024-03-08T14:27:50;14.10;62.90
39847;DHT22;25517;52.422;10.782;2024-03-08T14:30:20;13.90;63.60
39847;DHT22;25517;52.422;10.782;2024-03-08T14:33:06;14.00;63.30
39847;DHT22;25517;52.422;10.782;2024-03-08T14:35:34;14.00;65.30
39847;DHT22;25517;52.422;10.782;2024-03-08T14:38:00;13.90;63.50
39847;DHT22;25517;52.422;10.782;2024-03-08T14:40:26;13.90;62.80
39847;DHT22;25517;52.422;10.782;2024-03-08T14:42:52;13.70;64.10
39847;DHT22;25517;52.422;10.782;2024-03-08T14:45:18;13.80;63.90
39847;DHT22;25517;52.422;10.782;2024-03-08T14:47:47;13.90;63.20
39847;DHT22;25517;52.422;10.782;2024-03-08T14:50:20;13.80;63.30
39847;DHT22;25517;52.422;10.782;2024-03-08T14:52:46;13.60;64.20
39847;DHT22;25517;52.422;10.782;2024-03-08T14:55:15;13.70;64.80
39847;DHT22;25517;52.422;10.782;2024-03-08T14:57:41;13.60;63.10
39847;DHT22;25517;52.422;10.782;2024-03-08T15:00:08;13.40;65.50
39847;DHT22;25517;52.422;10.782;2024-03-08T15:02:42;13.40;65.10
39847;DHT22;25517;52.422;10.782;2024-03-08T15:05:07;13.50;65.30
39847;DHT22;25517;52.422;10.782;2024-03-08T15:07:39;13.50;63.70
39847;DHT22;25517;52.422;10.782;2024-03-08T15:10:08;13.60;65.50
39847;DHT22;25517;52.422;10.782;2024-03-08T15:12:40;13.70;64.50
39847;DHT22;25517;52.422;10.782;2024-03-08T15:15:12;13.50;65.60
39847;DHT22;25517;52.422;10.782;2024-03-08T15:17:39;13.40;67.30
39847;DHT22;25517;52.422;10.782;2024-03-08T15:20:08;13.20;65.40
39847;DHT22;25517;52.422;10.782;2024-03-08T15:22:49;13.10;66.50
39847;DHT22;25517;52.422;10.782;2024-03-08T15:25:16;13.00;66.50
39847;DHT22;25517;52.422;10.782;2024-03-08T15:27:54;12.90;65.60
39847;DHT22;25517;52.422;10.782;2024-03-08T15:30:21;12.60;67.10
39847;DHT22;25517;52.422;10.782;2024-03-08T15:32:52;12.40;68.30